sensor_id;sensor_type;location;lat;lon;timestamp;P1;durP1;ratioP1;P2;durP2;ratioP2
26824;SDS011;14402;48.178;11.566;2022-12-07T00:00:14;8.0;;;7.2;;
26824;SDS011;14402;48.178;11.566;2022-12-07T00:00:44;7.7;;;6.9;;
26824;SDS011;14402;48.178;11.566;2022-12-07T00:01:15;7.4;;;6.7;;
26824;SDS011;14402;48.178;11.566;2022-12-07T00:01:45;7.4;;;6.7;;
26824;SDS011;14402;48.178;11.566;2022-12-07T00:02:14;7.4;;;6.7;;
26824;SDS011;14402;48.178;11.566;2022-12-07T00:02:44;7.5;;;6.8;;
26824;SDS011;14402;48.178;11.566;2022-12-07T00:03:14;7.6;;;6.9;;
26824;SDS011;14402;48.178;11.566;2022-12-07T00:03:45;7.6;;;6.9;;
26824;SDS011;14402;48.178;11.566;2022-12-07T00:04:16;7.6;;;6.9;;
26824;SDS011;14402;48.178;11.566;2022-12-07T00:04:45;7.6;;;6.8;;
26824;SDS011;14402;48.178;11.566;2022-12-07T00:05:15;7.5;;;6.7;;
26824;SDS011;14402;48.178;11.566;2022-12-07T00:05:45;7.5;;;6.7;;
26824;SDS011;14402;48.178;11.566;2022-12-07T00:06:15;7.5;;;6.7;;
26824;SDS011;14402;48.178;11.566;2022-12-07T00:06:46;7.8;;;6.9;;
26824;SDS011;14402;48.178;11.566;2022-12-07T00:07:15;8.0;;;7.2;;
26824;SDS011;14402;48.178;11.566;2022-12-07T00:07:45;8.0;;;7.2;;
26824;SDS011;14402;48.178;11.566;2022-12-07T00:08:15;8.0;;;7.2;;
26824;SDS011;14402;48.178;11.566;2022-12-07T00:08:46;7.8;;;6.9;;
26824;SDS011;14402;48.178;11.566;2022-12-07T00:09:16;7.5;;;6.7;;
26824;SDS011;14402;48.178;11.566;2022-12-07T00:09:45;7.5;;;6.7;;
26824;SDS011;14402;48.178;11.566;2022-12-07T00:10:16;7.5;;;6.7;;
26824;SDS011;14402;48.178;11.566;2022-12-07T00:10:46;7.3;;;6.4;;
26824;SDS011;14402;48.178;11.566;2022-12-07T00:11:17;7.2;;;6.2;;
26824;SDS011;14402;48.178;11.566;2022-12-07T00:11:47;7.2;;;6.2;;
26824;SDS011;14402;48.178;11.566;2022-12-07T00:12:16;7.2;;;6.2;;
26824;SDS011;14402;48.178;11.566;2022-12-07T00:12:46;7.5;;;6.6;;
26824;SDS011;14402;48.178;11.566;2022-12-07T00:13:16;7.8;;;6.9;;
26824;SDS011;14402;48.178;11.566;2022-12-07T00:13:46;7.8;;;6.9;;
26824;SDS011;14402;48.178;11.566;2022-12-07T00:14:16;7.8;;;6.9;;
26824;SDS011;14402;48.178;11.566;2022-12-07T00:14:46;7.9;;;7.0;;
26824;SDS011;14402;48.178;11.566;2022-12-07T00:15:16;7.9;;;7.1;;
26824;SDS011;14402;48.178;11.566;2022-12-07T00:15:46;7.9;;;7.1;;
26824;SDS011;14402;48.178;11.566;2022-12-07T00:16:17;7.9;;;7.1;;
26824;SDS011;14402;48.178;11.566;2022-12-07T00:16:48;7.4;;;6.6;;
26824;SDS011;14402;48.178;11.566;2022-12-07T00:17:18;6.8;;;6.2;;
26824;SDS011;14402;48.178;11.566;2022-12-07T00:17:47;6.8;;;6.2;;
26824;SDS011;14402;48.178;11.566;2022-12-07T00:18:17;6.8;;;6.2;;
26824;SDS011;14402;48.178;11.566;2022-12-07T00:18:47;7.4;;;6.6;;
26824;SDS011;14402;48.178;11.566;2022-12-07T00:19:17;8.0;;;6.9;;
26824;SDS011;14402;48.178;11.566;2022-12-07T00:19:47;8.0;;;6.9;;
26824;SDS011;14402;48.178;11.566;2022-12-07T00:20:17;8.0;;;6.9;;
26824;SDS011;14402;48.178;11.566;2022-12-07T00:20:47;7.7;;;6.7;;
26824;SDS011;14402;48.178;11.566;2022-12-07T00:21:18;7.3;;;6.5;;
26824;SDS011;14402;48.178;11.566;2022-12-07T00:21:47;7.3;;;6.5;;
26824;SDS011;14402;48.178;11.566;2022-12-07T00:22:18;7.3;;;6.5;;
26824;SDS011;14402;48.178;11.566;2022-12-07T00:22:48;7.4;;;6.6;;
26824;SDS011;14402;48.178;11.566;2022-12-07T00:23:18;7.4;;;6.7;;
26824;SDS011;14402;48.178;11.566;2022-12-07T00:23:48;7.4;;;6.7;;
26824;SDS011;14402;48.178;11.566;2022-12-07T00:24:18;7.4;;;6.7;;
26824;SDS011;14402;48.178;11.566;2022-12-07T00:24:48;7.2;;;6.5;;
26824;SDS011;14402;48.178;11.566;2022-12-07T00:25:18;6.9;;;6.3;;
26824;SDS011;14402;48.178;11.566;2022-12-07T00:25:48;6.9;;;6.3;;
26824;SDS011;14402;48.178;11.566;2022-12-07T00:26:19;6.9;;;6.3;;
26824;SDS011;14402;48.178;11.566;2022-12-07T00:26:48;6.9;;;6.3;;
26824;SDS011;14402;48.178;11.566;2022-12-07T00:27:18;7.0;;;6.3;;
26824;SDS011;14402;48.178;11.566;2022-12-07T00:27:48;7.0;;;6.3;;
26824;SDS011;14402;48.178;11.566;2022-12-07T00:28:19;7.0;;;6.3;;
26824;SDS011;14402;48.178;11.566;2022-12-07T00:28:49;7.0;;;6.3;;
26824;SDS011;14402;48.178;11.566;2022-12-07T00:29:20;7.0;;;6.3;;
26824;SDS011;14402;48.178;11.566;2022-12-07T00:29:49;7.0;;;6.3;;
26824;SDS011;14402;48.178;11.566;2022-12-07T00:30:19;7.0;;;6.3;;
26824;SDS011;14402;48.178;11.566;2022-12-07T00:30:49;7.2;;;6.4;;
26824;SDS011;14402;48.178;11.566;2022-12-07T00:31:20;7.3;;;6.6;;
26824;SDS011;14402;48.178;11.566;2022-12-07T00:31:49;7.3;;;6.6;;
26824;SDS011;14402;48.178;11.566;2022-12-07T00:32:19;7.3;;;6.6;;
26824;SDS011;14402;48.178;11.566;2022-12-07T00:32:49;7.2;;;6.4;;
26824;SDS011;14402;48.178;11.566;2022-12-07T00:33:19;7.0;;;6.3;;
26824;SDS011;14402;48.178;11.566;2022-12-07T00:33:49;7.0;;;6.3;;
26824;SDS011;14402;48.178;11.566;2022-12-07T00:34:20;7.0;;;6.3;;
26824;SDS011;14402;48.178;11.566;2022-12-07T00:34:49;7.2;;;6.5;;
26824;SDS011;14402;48.178;11.566;2022-12-07T00:35:20;7.5;;;6.7;;
26824;SDS011;14402;48.178;11.566;2022-12-07T00:35:54;7.5;;;6.7;;
26824;SDS011;14402;48.178;11.566;2022-12-07T00:36:21;7.5;;;6.7;;
26824;SDS011;14402;48.178;11.566;2022-12-07T00:36:50;7.2;;;6.4;;
26824;SDS011;14402;48.178;11.566;2022-12-07T00:37:20;6.9;;;6.2;;
26824;SDS011;14402;48.178;11.566;2022-12-07T00:37:50;6.9;;;6.2;;
26824;SDS011;14402;48.178;11.566;2022-12-07T00:38:20;6.9;;;6.2;;
26824;SDS011;14402;48.178;11.566;2022-12-07T00:38:50;6.9;;;6.3;;
26824;SDS011;14402;48.178;11.566;2022-12-07T00:39:20;7.0;;;6.4;;
26824;SDS011;14402;48.178;11.566;2022-12-07T00:39:50;7.0;;;6.4;;
26824;SDS011;14402;48.178;11.566;2022-12-07T00:40:20;7.0;;;6.4;;
26824;SDS011;14402;48.178;11.566;2022-12-07T00:40:55;7.2;;;6.4;;
26824;SDS011;14402;48.178;11.566;2022-12-07T00:41:21;7.5;;;6.3;;
26824;SDS011;14402;48.178;11.566;2022-12-07T00:41:51;7.5;;;6.3;;
26824;SDS011;14402;48.178;11.566;2022-12-07T00:42:21;7.5;;;6.3;;
26824;SDS011;14402;48.178;11.566;2022-12-07T00:42:51;7.2;;;6.3;;
26824;SDS011;14402;48.178;11.566;2022-12-07T00:43:21;6.9;;;6.3;;
26824;SDS011;14402;48.178;11.566;2022-12-07T00:43:51;6.9;;;6.3;;
26824;SDS011;14402;48.178;11.566;2022-12-07T00:44:21;6.9;;;6.3;;
26824;SDS011;14402;48.178;11.566;2022-12-07T00:44:51;6.9;;;6.3;;
26824;SDS011;14402;48.178;11.566;2022-12-07T00:45:21;7.0;;;6.3;;
26824;SDS011;14402;48.178;11.566;2022-12-07T00:45:51;7.0;;;6.3;;
26824;SDS011;14402;48.178;11.566;2022-12-07T00:46:22;7.0;;;6.3;;
26824;SDS011;14402;48.178;11.566;2022-12-07T00:46:52;7.1;;;6.4;;
26824;SDS011;14402;48.178;11.566;2022-12-07T00:47:22;7.1;;;6.4;;
26824;SDS011;14402;48.178;11.566;2022-12-07T00:47:52;7.1;;;6.4;;
26824;SDS011;14402;48.178;11.566;2022-12-07T00:48:22;7.1;;;6.4;;
26824;SDS011;14402;48.178;11.566;2022-12-07T00:48:52;7.0;;;6.3;;
26824;SDS011;14402;48.178;11.566;2022-12-07T00:49:22;6.9;;;6.2;;
26824;SDS011;14402;48.178;11.566;2022-12-07T00:49:52;6.9;;;6.2;;
26824;SDS011;14402;48.178;11.566;2022-12-07T00:50:22;6.9;;;6.2;;
26824;SDS011;14402;48.178;11.566;2022-12-07T00:50:52;7.3;;;6.3;;
26824;SDS011;14402;48.178;11.566;2022-12-07T00:51:23;7.7;;;6.5;;
26824;SDS011;14402;48.178;11.566;2022-12-07T00:51:52;7.7;;;6.5;;
26824;SDS011;14402;48.178;11.566;2022-12-07T00:52:23;7.7;;;6.5;;
26824;SDS011;14402;48.178;11.566;2022-12-07T00:52:53;7.1;;;6.2;;
26824;SDS011;14402;48.178;11.566;2022-12-07T00:53:23;6.4;;;5.8;;
26824;SDS011;14402;48.178;11.566;2022-12-07T00:53:53;6.4;;;5.8;;
26824;SDS011;14402;48.178;11.566;2022-12-07T00:54:23;6.4;;;5.8;;
26824;SDS011;14402;48.178;11.566;2022-12-07T00:54:53;6.7;;;6.1;;
26824;SDS011;14402;48.178;11.566;2022-12-07T00:55:23;7.0;;;6.3;;
26824;SDS011;14402;48.178;11.566;2022-12-07T00:55:53;7.0;;;6.3;;
26824;SDS011;14402;48.178;11.566;2022-12-07T00:56:24;7.0;;;6.3;;
26824;SDS011;14402;48.178;11.566;2022-12-07T00:56:53;6.8;;;6.2;;
26824;SDS011;14402;48.178;11.566;2022-12-07T00:57:23;6.6;;;6.0;;
26824;SDS011;14402;48.178;11.566;2022-12-07T00:57:53;6.6;;;6.0;;
26824;SDS011;14402;48.178;11.566;2022-12-07T00:58:24;6.6;;;6.0;;
26824;SDS011;14402;48.178;11.566;2022-12-07T00:58:54;6.6;;;6.1;;
26824;SDS011;14402;48.178;11.566;2022-12-07T00:59:24;6.7;;;6.1;;
26824;SDS011;14402;48.178;11.566;2022-12-07T00:59:54;6.7;;;6.1;;
26824;SDS011;14402;48.178;11.566;2022-12-07T01:00:24;6.7;;;6.1;;
26824;SDS011;14402;48.178;11.566;2022-12-07T01:00:54;7.0;;;6.3;;
26824;SDS011;14402;48.178;11.566;2022-12-07T01:01:25;7.3;;;6.6;;
26824;SDS011;14402;48.178;11.566;2022-12-07T01:01:54;7.3;;;6.6;;
26824;SDS011;14402;48.178;11.566;2022-12-07T01:02:24;7.3;;;6.6;;
26824;SDS011;14402;48.178;11.566;2022-12-07T01:02:54;7.2;;;6.5;;
26824;SDS011;14402;48.178;11.566;2022-12-07T01:03:24;7.1;;;6.4;;
26824;SDS011;14402;48.178;11.566;2022-12-07T01:03:54;7.1;;;6.4;;
26824;SDS011;14402;48.178;11.566;2022-12-07T01:04:25;7.1;;;6.4;;
26824;SDS011;14402;48.178;11.566;2022-12-07T01:04:54;7.4;;;6.7;;
26824;SDS011;14402;48.178;11.566;2022-12-07T01:05:25;7.7;;;6.9;;
26824;SDS011;14402;48.178;11.566;2022-12-07T01:05:55;7.7;;;6.9;;
26824;SDS011;14402;48.178;11.566;2022-12-07T01:06:25;7.7;;;6.9;;
26824;SDS011;14402;48.178;11.566;2022-12-07T01:06:55;7.5;;;6.8;;
26824;SDS011;14402;48.178;11.566;2022-12-07T01:07:25;7.3;;;6.6;;
26824;SDS011;14402;48.178;11.566;2022-12-07T01:07:55;7.3;;;6.6;;
26824;SDS011;14402;48.178;11.566;2022-12-07T01:08:26;7.3;;;6.6;;
26824;SDS011;14402;48.178;11.566;2022-12-07T01:08:55;7.1;;;6.4;;
26824;SDS011;14402;48.178;11.566;2022-12-07T01:09:25;6.9;;;6.2;;
26824;SDS011;14402;48.178;11.566;2022-12-07T01:09:55;6.9;;;6.2;;
26824;SDS011;14402;48.178;11.566;2022-12-07T01:10:26;6.9;;;6.2;;
26824;SDS011;14402;48.178;11.566;2022-12-07T01:10:57;6.9;;;6.2;;
26824;SDS011;14402;48.178;11.566;2022-12-07T01:11:27;7.0;;;6.3;;
26824;SDS011;14402;48.178;11.566;2022-12-07T01:11:56;7.0;;;6.3;;
26824;SDS011;14402;48.178;11.566;2022-12-07T01:12:26;7.0;;;6.3;;
26824;SDS011;14402;48.178;11.566;2022-12-07T01:12:56;6.9;;;6.2;;
26824;SDS011;14402;48.178;11.566;2022-12-07T01:13:26;6.8;;;6.1;;
26824;SDS011;14402;48.178;11.566;2022-12-07T01:13:57;6.8;;;6.1;;
26824;SDS011;14402;48.178;11.566;2022-12-07T01:14:26;6.8;;;6.1;;
26824;SDS011;14402;48.178;11.566;2022-12-07T01:14:56;6.6;;;5.9;;
26824;SDS011;14402;48.178;11.566;2022-12-07T01:15:26;6.3;;;5.7;;
26824;SDS011;14402;48.178;11.566;2022-12-07T01:15:57;6.3;;;5.7;;
26824;SDS011;14402;48.178;11.566;2022-12-07T01:16:27;6.3;;;5.7;;
26824;SDS011;14402;48.178;11.566;2022-12-07T01:16:56;6.8;;;6.0;;
26824;SDS011;14402;48.178;11.566;2022-12-07T01:17:28;7.2;;;6.3;;
26824;SDS011;14402;48.178;11.566;2022-12-07T01:17:57;7.2;;;6.3;;
26824;SDS011;14402;48.178;11.566;2022-12-07T01:18:27;7.2;;;6.3;;
26824;SDS011;14402;48.178;11.566;2022-12-07T01:18:57;7.1;;;6.2;;
26824;SDS011;14402;48.178;11.566;2022-12-07T01:19:27;6.9;;;6.2;;
26824;SDS011;14402;48.178;11.566;2022-12-07T01:19:57;6.9;;;6.2;;
26824;SDS011;14402;48.178;11.566;2022-12-07T01:20:27;6.9;;;6.2;;
26824;SDS011;14402;48.178;11.566;2022-12-07T01:20:58;6.7;;;6.1;;
26824;SDS011;14402;48.178;11.566;2022-12-07T01:21:28;6.5;;;5.9;;
26824;SDS011;14402;48.178;11.566;2022-12-07T01:21:57;6.5;;;5.9;;
26824;SDS011;14402;48.178;11.566;2022-12-07T01:22:27;6.5;;;5.9;;
26824;SDS011;14402;48.178;11.566;2022-12-07T01:22:57;6.7;;;6.0;;
26824;SDS011;14402;48.178;11.566;2022-12-07T01:23:28;6.8;;;6.1;;
26824;SDS011;14402;48.178;11.566;2022-12-07T01:23:58;6.8;;;6.1;;
26824;SDS011;14402;48.178;11.566;2022-12-07T01:24:28;6.8;;;6.1;;
26824;SDS011;14402;48.178;11.566;2022-12-07T01:24:58;6.9;;;6.2;;
26824;SDS011;14402;48.178;11.566;2022-12-07T01:25:28;7.0;;;6.3;;
26824;SDS011;14402;48.178;11.566;2022-12-07T01:25:58;7.0;;;6.3;;
26824;SDS011;14402;48.178;11.566;2022-12-07T01:26:28;7.0;;;6.3;;
26824;SDS011;14402;48.178;11.566;2022-12-07T01:26:58;6.9;;;6.2;;
26824;SDS011;14402;48.178;11.566;2022-12-07T01:27:28;6.9;;;6.2;;
26824;SDS011;14402;48.178;11.566;2022-12-07T01:27:58;6.9;;;6.2;;
26824;SDS011;14402;48.178;11.566;2022-12-07T01:28:28;6.9;;;6.1;;
26824;SDS011;14402;48.178;11.566;2022-12-07T01:28:58;6.8;;;6.1;;
26824;SDS011;14402;48.178;11.566;2022-12-07T01:29:29;6.8;;;6.1;;
26824;SDS011;14402;48.178;11.566;2022-12-07T01:29:59;6.8;;;6.1;;
26824;SDS011;14402;48.178;11.566;2022-12-07T01:30:29;7.2;;;6.2;;
26824;SDS011;14402;48.178;11.566;2022-12-07T01:31:00;7.6;;;6.4;;
26824;SDS011;14402;48.178;11.566;2022-12-07T01:31:29;7.6;;;6.4;;
26824;SDS011;14402;48.178;11.566;2022-12-07T01:31:59;7.6;;;6.4;;
26824;SDS011;14402;48.178;11.566;2022-12-07T01:32:29;7.3;;;6.4;;
26824;SDS011;14402;48.178;11.566;2022-12-07T01:32:59;7.1;;;6.4;;
26824;SDS011;14402;48.178;11.566;2022-12-07T01:33:30;7.1;;;6.4;;
26824;SDS011;14402;48.178;11.566;2022-12-07T01:34:00;7.1;;;6.4;;
26824;SDS011;14402;48.178;11.566;2022-12-07T01:34:29;7.2;;;6.5;;
26824;SDS011;14402;48.178;11.566;2022-12-07T01:34:59;7.4;;;6.6;;
26824;SDS011;14402;48.178;11.566;2022-12-07T01:35:29;7.4;;;6.6;;
26824;SDS011;14402;48.178;11.566;2022-12-07T01:36:00;7.4;;;6.6;;
26824;SDS011;14402;48.178;11.566;2022-12-07T01:36:30;7.5;;;6.8;;
26824;SDS011;14402;48.178;11.566;2022-12-07T01:37:00;7.6;;;6.9;;
26824;SDS011;14402;48.178;11.566;2022-12-07T01:37:33;7.6;;;6.9;;
26824;SDS011;14402;48.178;11.566;2022-12-07T01:38:00;7.6;;;6.9;;
26824;SDS011;14402;48.178;11.566;2022-12-07T01:38:30;7.3;;;6.7;;
26824;SDS011;14402;48.178;11.566;2022-12-07T01:39:00;7.1;;;6.4;;
26824;SDS011;14402;48.178;11.566;2022-12-07T01:39:30;7.1;;;6.4;;
26824;SDS011;14402;48.178;11.566;2022-12-07T01:40:00;7.1;;;6.4;;
26824;SDS011;14402;48.178;11.566;2022-12-07T01:40:30;6.9;;;6.3;;
26824;SDS011;14402;48.178;11.566;2022-12-07T01:41:01;6.8;;;6.2;;
26824;SDS011;14402;48.178;11.566;2022-12-07T01:41:33;6.8;;;6.2;;
26824;SDS011;14402;48.178;11.566;2022-12-07T01:42:01;6.8;;;6.2;;
26824;SDS011;14402;48.178;11.566;2022-12-07T01:42:31;6.7;;;6.1;;
26824;SDS011;14402;48.178;11.566;2022-12-07T01:43:01;6.6;;;6.0;;
26824;SDS011;14402;48.178;11.566;2022-12-07T01:43:32;6.6;;;6.0;;
26824;SDS011;14402;48.178;11.566;2022-12-07T01:44:10;6.6;;;6.0;;
26824;SDS011;14402;48.178;11.566;2022-12-07T01:44:31;6.9;;;6.3;;
26824;SDS011;14402;48.178;11.566;2022-12-07T01:46:06;7.2;;;6.6;;
26824;SDS011;14402;48.178;11.566;2022-12-07T01:46:07;7.2;;;6.6;;
26824;SDS011;14402;48.178;11.566;2022-12-07T01:46:07;7.2;;;6.6;;
26824;SDS011;14402;48.178;11.566;2022-12-07T01:46:31;7.3;;;6.7;;
26824;SDS011;14402;48.178;11.566;2022-12-07T01:47:02;7.5;;;6.8;;
26824;SDS011;14402;48.178;11.566;2022-12-07T01:47:32;7.5;;;6.8;;
26824;SDS011;14402;48.178;11.566;2022-12-07T01:48:02;7.5;;;6.8;;
26824;SDS011;14402;48.178;11.566;2022-12-07T01:48:32;7.1;;;6.4;;
26824;SDS011;14402;48.178;11.566;2022-12-07T01:49:02;6.6;;;6.0;;
26824;SDS011;14402;48.178;11.566;2022-12-07T01:49:33;6.6;;;6.0;;
26824;SDS011;14402;48.178;11.566;2022-12-07T01:50:02;6.6;;;6.0;;
26824;SDS011;14402;48.178;11.566;2022-12-07T01:50:32;6.4;;;5.8;;
26824;SDS011;14402;48.178;11.566;2022-12-07T01:51:03;6.2;;;5.6;;
26824;SDS011;14402;48.178;11.566;2022-12-07T01:51:32;6.2;;;5.6;;
26824;SDS011;14402;48.178;11.566;2022-12-07T01:52:06;6.2;;;5.6;;
26824;SDS011;14402;48.178;11.566;2022-12-07T01:52:33;6.3;;;5.8;;
26824;SDS011;14402;48.178;11.566;2022-12-07T01:53:03;6.5;;;5.9;;
26824;SDS011;14402;48.178;11.566;2022-12-07T01:53:33;6.5;;;5.9;;
26824;SDS011;14402;48.178;11.566;2022-12-07T01:54:03;6.5;;;5.9;;
26824;SDS011;14402;48.178;11.566;2022-12-07T01:54:33;6.4;;;5.9;;
26824;SDS011;14402;48.178;11.566;2022-12-07T01:55:03;6.4;;;5.8;;
26824;SDS011;14402;48.178;11.566;2022-12-07T01:55:33;6.4;;;5.8;;
26824;SDS011;14402;48.178;11.566;2022-12-07T01:56:03;6.4;;;5.8;;
26824;SDS011;14402;48.178;11.566;2022-12-07T01:56:33;6.3;;;5.7;;
26824;SDS011;14402;48.178;11.566;2022-12-07T01:57:03;6.2;;;5.6;;
26824;SDS011;14402;48.178;11.566;2022-12-07T01:57:34;6.2;;;5.6;;
26824;SDS011;14402;48.178;11.566;2022-12-07T01:58:03;6.2;;;5.6;;
26824;SDS011;14402;48.178;11.566;2022-12-07T01:58:33;6.6;;;6.0;;
26824;SDS011;14402;48.178;11.566;2022-12-07T01:59:03;7.1;;;6.4;;
26824;SDS011;14402;48.178;11.566;2022-12-07T01:59:34;7.1;;;6.4;;
26824;SDS011;14402;48.178;11.566;2022-12-07T02:00:04;7.1;;;6.4;;
26824;SDS011;14402;48.178;11.566;2022-12-07T02:00:34;7.0;;;6.3;;
26824;SDS011;14402;48.178;11.566;2022-12-07T02:01:04;6.9;;;6.2;;
26824;SDS011;14402;48.178;11.566;2022-12-07T02:01:34;6.9;;;6.2;;
26824;SDS011;14402;48.178;11.566;2022-12-07T02:02:05;6.9;;;6.2;;
26824;SDS011;14402;48.178;11.566;2022-12-07T02:02:35;6.9;;;6.2;;
26824;SDS011;14402;48.178;11.566;2022-12-07T02:03:04;6.9;;;6.3;;
26824;SDS011;14402;48.178;11.566;2022-12-07T02:03:36;6.9;;;6.3;;
26824;SDS011;14402;48.178;11.566;2022-12-07T02:04:04;6.9;;;6.3;;
26824;SDS011;14402;48.178;11.566;2022-12-07T02:04:34;7.1;;;6.4;;
26824;SDS011;14402;48.178;11.566;2022-12-07T02:05:05;7.2;;;6.5;;
26824;SDS011;14402;48.178;11.566;2022-12-07T02:05:35;7.2;;;6.5;;
26824;SDS011;14402;48.178;11.566;2022-12-07T02:06:05;7.2;;;6.5;;
26824;SDS011;14402;48.178;11.566;2022-12-07T02:06:35;7.4;;;6.7;;
26824;SDS011;14402;48.178;11.566;2022-12-07T02:07:05;7.7;;;6.9;;
26824;SDS011;14402;48.178;11.566;2022-12-07T02:07:36;7.7;;;6.9;;
26824;SDS011;14402;48.178;11.566;2022-12-07T02:08:05;7.7;;;6.9;;
26824;SDS011;14402;48.178;11.566;2022-12-07T02:08:35;7.6;;;6.9;;
26824;SDS011;14402;48.178;11.566;2022-12-07T02:09:05;7.6;;;6.8;;
26824;SDS011;14402;48.178;11.566;2022-12-07T02:09:35;7.6;;;6.8;;
26824;SDS011;14402;48.178;11.566;2022-12-07T02:10:14;7.6;;;6.8;;
26824;SDS011;14402;48.178;11.566;2022-12-07T02:10:35;7.7;;;6.9;;
26824;SDS011;14402;48.178;11.566;2022-12-07T02:11:05;7.8;;;7.1;;
26824;SDS011;14402;48.178;11.566;2022-12-07T02:11:35;7.8;;;7.1;;
26824;SDS011;14402;48.178;11.566;2022-12-07T02:12:06;7.8;;;7.1;;
26824;SDS011;14402;48.178;11.566;2022-12-07T02:12:36;7.8;;;7.0;;
26824;SDS011;14402;48.178;11.566;2022-12-07T02:13:07;7.7;;;6.9;;
26824;SDS011;14402;48.178;11.566;2022-12-07T02:13:36;7.7;;;6.9;;
26824;SDS011;14402;48.178;11.566;2022-12-07T02:14:06;7.7;;;6.9;;
26824;SDS011;14402;48.178;11.566;2022-12-07T02:14:36;7.8;;;6.9;;
26824;SDS011;14402;48.178;11.566;2022-12-07T02:15:06;7.8;;;7.0;;
26824;SDS011;14402;48.178;11.566;2022-12-07T02:15:39;7.8;;;7.0;;
26824;SDS011;14402;48.178;11.566;2022-12-07T02:16:09;7.8;;;7.0;;
26824;SDS011;14402;48.178;11.566;2022-12-07T02:16:38;7.6;;;6.8;;
26824;SDS011;14402;48.178;11.566;2022-12-07T02:17:09;7.3;;;6.6;;
26824;SDS011;14402;48.178;11.566;2022-12-07T02:17:38;7.3;;;6.6;;
26824;SDS011;14402;48.178;11.566;2022-12-07T02:18:07;7.3;;;6.6;;
26824;SDS011;14402;48.178;11.566;2022-12-07T02:18:41;7.4;;;6.6;;
26824;SDS011;14402;48.178;11.566;2022-12-07T02:19:14;7.5;;;6.7;;
26824;SDS011;14402;48.178;11.566;2022-12-07T02:19:41;7.5;;;6.7;;
26824;SDS011;14402;48.178;11.566;2022-12-07T02:20:13;7.5;;;6.7;;
26824;SDS011;14402;48.178;11.566;2022-12-07T02:20:37;7.4;;;6.6;;
26824;SDS011;14402;48.178;11.566;2022-12-07T02:21:07;7.3;;;6.6;;
26824;SDS011;14402;48.178;11.566;2022-12-07T02:21:38;7.3;;;6.6;;
26824;SDS011;14402;48.178;11.566;2022-12-07T02:22:13;7.3;;;6.6;;
26824;SDS011;14402;48.178;11.566;2022-12-07T02:22:44;7.2;;;6.5;;
26824;SDS011;14402;48.178;11.566;2022-12-07T02:23:14;7.1;;;6.4;;
26824;SDS011;14402;48.178;11.566;2022-12-07T02:23:39;7.1;;;6.4;;
26824;SDS011;14402;48.178;11.566;2022-12-07T02:24:14;7.1;;;6.4;;
26824;SDS011;14402;48.178;11.566;2022-12-07T02:24:44;6.9;;;6.2;;
26824;SDS011;14402;48.178;11.566;2022-12-07T02:25:08;6.7;;;6.1;;
26824;SDS011;14402;48.178;11.566;2022-12-07T02:25:42;6.7;;;6.1;;
26824;SDS011;14402;48.178;11.566;2022-12-07T02:26:14;6.7;;;6.1;;
26824;SDS011;14402;48.178;11.566;2022-12-07T02:26:44;6.8;;;6.1;;
26824;SDS011;14402;48.178;11.566;2022-12-07T02:27:17;6.8;;;6.1;;
26824;SDS011;14402;48.178;11.566;2022-12-07T02:27:39;6.8;;;6.1;;
26824;SDS011;14402;48.178;11.566;2022-12-07T02:28:09;6.8;;;6.1;;
26824;SDS011;14402;48.178;11.566;2022-12-07T02:28:45;7.0;;;6.3;;
26824;SDS011;14402;48.178;11.566;2022-12-07T02:29:10;7.2;;;6.5;;
26824;SDS011;14402;48.178;11.566;2022-12-07T02:29:39;7.2;;;6.5;;
26824;SDS011;14402;48.178;11.566;2022-12-07T02:30:09;7.2;;;6.5;;
26824;SDS011;14402;48.178;11.566;2022-12-07T02:30:40;6.9;;;6.2;;
26824;SDS011;14402;48.178;11.566;2022-12-07T02:31:10;6.6;;;6.0;;
26824;SDS011;14402;48.178;11.566;2022-12-07T02:31:40;6.6;;;6.0;;
26824;SDS011;14402;48.178;11.566;2022-12-07T02:32:11;6.6;;;6.0;;
26824;SDS011;14402;48.178;11.566;2022-12-07T02:32:42;6.9;;;6.0;;
26824;SDS011;14402;48.178;11.566;2022-12-07T02:33:11;7.3;;;6.0;;
26824;SDS011;14402;48.178;11.566;2022-12-07T02:33:40;7.3;;;6.0;;
26824;SDS011;14402;48.178;11.566;2022-12-07T02:34:11;7.3;;;6.0;;
26824;SDS011;14402;48.178;11.566;2022-12-07T02:34:42;6.8;;;5.8;;
26824;SDS011;14402;48.178;11.566;2022-12-07T02:35:11;6.2;;;5.6;;
26824;SDS011;14402;48.178;11.566;2022-12-07T02:35:40;6.2;;;5.6;;
26824;SDS011;14402;48.178;11.566;2022-12-07T02:36:10;6.2;;;5.6;;
26824;SDS011;14402;48.178;11.566;2022-12-07T02:36:40;6.2;;;5.6;;
26824;SDS011;14402;48.178;11.566;2022-12-07T02:37:12;6.2;;;5.6;;
26824;SDS011;14402;48.178;11.566;2022-12-07T02:37:41;6.2;;;5.6;;
26824;SDS011;14402;48.178;11.566;2022-12-07T02:38:11;6.2;;;5.6;;
26824;SDS011;14402;48.178;11.566;2022-12-07T02:38:43;6.4;;;5.8;;
26824;SDS011;14402;48.178;11.566;2022-12-07T02:39:11;6.6;;;6.0;;
26824;SDS011;14402;48.178;11.566;2022-12-07T02:39:41;6.6;;;6.0;;
26824;SDS011;14402;48.178;11.566;2022-12-07T02:40:11;6.6;;;6.0;;
26824;SDS011;14402;48.178;11.566;2022-12-07T02:40:41;6.7;;;6.1;;
26824;SDS011;14402;48.178;11.566;2022-12-07T02:41:11;6.8;;;6.1;;
26824;SDS011;14402;48.178;11.566;2022-12-07T02:41:42;6.8;;;6.1;;
26824;SDS011;14402;48.178;11.566;2022-12-07T02:42:13;6.8;;;6.1;;
26824;SDS011;14402;48.178;11.566;2022-12-07T02:42:42;6.7;;;6.0;;
26824;SDS011;14402;48.178;11.566;2022-12-07T02:43:12;6.5;;;5.9;;
26824;SDS011;14402;48.178;11.566;2022-12-07T02:43:42;6.5;;;5.9;;
26824;SDS011;14402;48.178;11.566;2022-12-07T02:44:12;6.5;;;5.9;;
26824;SDS011;14402;48.178;11.566;2022-12-07T02:44:41;6.8;;;6.1;;
26824;SDS011;14402;48.178;11.566;2022-12-07T02:45:12;7.0;;;6.3;;
26824;SDS011;14402;48.178;11.566;2022-12-07T02:45:41;7.0;;;6.3;;
26824;SDS011;14402;48.178;11.566;2022-12-07T02:46:12;7.0;;;6.3;;
26824;SDS011;14402;48.178;11.566;2022-12-07T02:46:42;7.3;;;6.6;;
26824;SDS011;14402;48.178;11.566;2022-12-07T02:47:12;7.7;;;6.9;;
26824;SDS011;14402;48.178;11.566;2022-12-07T02:47:41;7.7;;;6.9;;
26824;SDS011;14402;48.178;11.566;2022-12-07T02:48:12;7.7;;;6.9;;
26824;SDS011;14402;48.178;11.566;2022-12-07T02:48:42;7.6;;;6.9;;
26824;SDS011;14402;48.178;11.566;2022-12-07T02:49:12;7.6;;;6.9;;
26824;SDS011;14402;48.178;11.566;2022-12-07T02:49:42;7.6;;;6.9;;
26824;SDS011;14402;48.178;11.566;2022-12-07T02:50:12;7.6;;;6.9;;
26824;SDS011;14402;48.178;11.566;2022-12-07T02:50:44;7.8;;;7.1;;
26824;SDS011;14402;48.178;11.566;2022-12-07T02:51:12;8.0;;;7.2;;
26824;SDS011;14402;48.178;11.566;2022-12-07T02:51:42;8.0;;;7.2;;
26824;SDS011;14402;48.178;11.566;2022-12-07T02:52:12;8.0;;;7.2;;
26824;SDS011;14402;48.178;11.566;2022-12-07T02:52:42;7.8;;;6.9;;
26824;SDS011;14402;48.178;11.566;2022-12-07T02:53:42;7.5;;;6.7;;
26824;SDS011;14402;48.178;11.566;2022-12-07T02:53:43;7.5;;;6.7;;
26824;SDS011;14402;48.178;11.566;2022-12-07T02:54:13;7.5;;;6.7;;
26824;SDS011;14402;48.178;11.566;2022-12-07T02:54:42;7.3;;;6.6;;
26824;SDS011;14402;48.178;11.566;2022-12-07T02:55:13;7.2;;;6.5;;
26824;SDS011;14402;48.178;11.566;2022-12-07T02:55:43;7.2;;;6.5;;
26824;SDS011;14402;48.178;11.566;2022-12-07T02:56:13;7.2;;;6.5;;
26824;SDS011;14402;48.178;11.566;2022-12-07T02:56:44;7.3;;;6.6;;
26824;SDS011;14402;48.178;11.566;2022-12-07T02:57:26;7.4;;;6.7;;
26824;SDS011;14402;48.178;11.566;2022-12-07T02:57:48;7.4;;;6.7;;
26824;SDS011;14402;48.178;11.566;2022-12-07T02:58:17;7.4;;;6.7;;
26824;SDS011;14402;48.178;11.566;2022-12-07T02:58:46;7.8;;;6.9;;
26824;SDS011;14402;48.178;11.566;2022-12-07T02:59:15;8.1;;;7.2;;
26824;SDS011;14402;48.178;11.566;2022-12-07T02:59:46;8.1;;;7.2;;
26824;SDS011;14402;48.178;11.566;2022-12-07T03:00:14;8.1;;;7.2;;
26824;SDS011;14402;48.178;11.566;2022-12-07T03:00:45;8.0;;;7.2;;
26824;SDS011;14402;48.178;11.566;2022-12-07T03:01:15;7.9;;;7.2;;
26824;SDS011;14402;48.178;11.566;2022-12-07T03:01:46;7.9;;;7.2;;
26824;SDS011;14402;48.178;11.566;2022-12-07T03:02:16;7.9;;;7.2;;
26824;SDS011;14402;48.178;11.566;2022-12-07T03:02:47;7.6;;;6.8;;
26824;SDS011;14402;48.178;11.566;2022-12-07T03:03:14;7.2;;;6.5;;
26824;SDS011;14402;48.178;11.566;2022-12-07T03:03:46;7.2;;;6.5;;